ワシントン/ダレス の空港の天気 - METARとTAF

ワシントン・ダレス国際空港 ( KIAD / IAD ) - アメリカ バージニア州ダレス
飛行場実況気象(Metar)
観測時間01/22 23:52 EST (01/23 04:52 UTC)
風向・風速南 5m/s
視程10km以上
天気現象
少しの雲 雲底高度 1520m
全天の4割程度の雲 雲底高度 2740m
全天の8割程度の雲 雲底高度 3960m
気温12.8℃
湿度64%
気圧1013.1hPa
METARKIAD 230452Z 18010KT 10SM FEW050 SCT090 BKN130 13/06 A2992 RMK AO2 SLP131 T01280061 401890089
過去の天気等 Google飛行場航空写真 Wunderground天気予報

過去48時間のMETAR

飛行場予報(TAF)
発表時間: 1/23 00:40 EST (1/23 05:40 UTC)
予報対象時間: 23日1時 EST ~ 24日7時 EST
風向・風速南 6m/s
視程10km以上
全天を覆う雲 雲底高度 1,520m
23日2時 EST から
風向・風速南 6m/s 瞬間風速 9m/s
視程4,830m
天気現象弱いしゅう雨
全天の8割程度の雲 雲底高度 760m
全天を覆う雲 雲底高度 1,520m
23日4時 EST から
風向・風速南 7m/s 瞬間風速 10m/s
視程3,220m
天気現象弱いしゅう雨
全天の8割程度の雲 雲底高度 240m
全天を覆う雲 雲底高度 460m
23日10時 EST から
風向・風速南西 6m/s 瞬間風速 11m/s
視程10km以上
全天の8割程度の雲 雲底高度 760m
23日12時 EST から
風向・風速西南西 7m/s 瞬間風速 12m/s
視程10km以上
全天の4割程度の雲 雲底高度 1,370m
24日0時 EST から
風向・風速西 4m/s
視程10km以上
全天の4割程度の雲 雲底高度 1,220m
KIAD 230540Z 2306/2412 17011KT P6SM OVC050
FM230700 18011G18KT 3SM -SHRA BKN025 OVC050 WS020/20040KT
FM230900 19013G20KT 2SM -SHRA BKN008 OVC015 WS020/20045KT
FM231500 22012G21KT P6SM BKN025
FM231700 25014G24KT P6SM SCT045
FM240500 28008KT P6SM SCT040